sensor_id;sensor_type;location;lat;lon;timestamp;pressure;altitude;pressure_sealevel;temperature;humidity
28927;BME280;16038;47.692;9.400;2022-07-21T00:00:58;97050.72;;;20.36;100.00
28927;BME280;16038;47.692;9.400;2022-07-21T00:03:24;97051.63;;;20.53;100.00
28927;BME280;16038;47.692;9.400;2022-07-21T00:05:49;97055.44;;;20.63;100.00
28927;BME280;16038;47.692;9.400;2022-07-21T00:08:14;97051.16;;;20.58;100.00
28927;BME280;16038;47.692;9.400;2022-07-21T00:10:40;97055.69;;;20.72;100.00
28927;BME280;16038;47.692;9.400;2022-07-21T00:13:06;97047.13;;;20.83;100.00
28927;BME280;16038;47.692;9.400;2022-07-21T00:15:32;97054.34;;;20.80;100.00
28927;BME280;16038;47.692;9.400;2022-07-21T00:17:58;97064.09;;;20.69;100.00
28927;BME280;16038;47.692;9.400;2022-07-21T00:20:24;97069.47;;;20.56;100.00
28927;BME280;16038;47.692;9.400;2022-07-21T00:22:50;97080.22;;;20.54;100.00
28927;BME280;16038;47.692;9.400;2022-07-21T00:25:16;97077.94;;;20.72;100.00
28927;BME280;16038;47.692;9.400;2022-07-21T00:27:41;97071.41;;;20.83;100.00
28927;BME280;16038;47.692;9.400;2022-07-21T00:30:08;97072.19;;;20.83;100.00
28927;BME280;16038;47.692;9.400;2022-07-21T00:32:34;97057.63;;;20.75;100.00
28927;BME280;16038;47.692;9.400;2022-07-21T00:35:00;97056.28;;;20.60;100.00
28927;BME280;16038;47.692;9.400;2022-07-21T00:37:26;97046.97;;;20.47;100.00
28927;BME280;16038;47.692;9.400;2022-07-21T00:39:55;97049.81;;;20.43;100.00
28927;BME280;16038;47.692;9.400;2022-07-21T00:42:22;97043.28;;;20.30;100.00
28927;BME280;16038;47.692;9.400;2022-07-21T00:44:48;97047.09;;;20.39;100.00
28927;BME280;16038;47.692;9.400;2022-07-21T00:47:14;97057.13;;;20.33;100.00
28927;BME280;16038;47.692;9.400;2022-07-21T00:49:39;97046.72;;;20.14;100.00
28927;BME280;16038;47.692;9.400;2022-07-21T00:52:05;97054.44;;;20.02;100.00
28927;BME280;16038;47.692;9.400;2022-07-21T00:54:31;97056.78;;;20.04;100.00
28927;BME280;16038;47.692;9.400;2022-07-21T00:56:56;97059.56;;;20.04;100.00
28927;BME280;16038;47.692;9.400;2022-07-21T00:59:22;97059.06;;;20.36;100.00
28927;BME280;16038;47.692;9.400;2022-07-21T01:01:47;97054.41;;;20.30;100.00
28927;BME280;16038;47.692;9.400;2022-07-21T01:04:13;97071.75;;;20.14;100.00
28927;BME280;16038;47.692;9.400;2022-07-21T01:06:38;97066.78;;;20.01;100.00
28927;BME280;16038;47.692;9.400;2022-07-21T01:09:03;97062.78;;;20.02;100.00
28927;BME280;16038;47.692;9.400;2022-07-21T01:11:29;97058.06;;;19.99;100.00
28927;BME280;16038;47.692;9.400;2022-07-21T01:13:56;97054.06;;;20.00;100.00
28927;BME280;16038;47.692;9.400;2022-07-21T01:16:21;97063.19;;;20.28;100.00
28927;BME280;16038;47.692;9.400;2022-07-21T01:18:47;97050.00;;;20.32;100.00
28927;BME280;16038;47.692;9.400;2022-07-21T01:23:53;97063.38;;;19.90;100.00
28927;BME280;16038;47.692;9.400;2022-07-21T01:26:18;97062.25;;;19.84;100.00
28927;BME280;16038;47.692;9.400;2022-07-21T01:28:44;97062.72;;;19.79;100.00
28927;BME280;16038;47.692;9.400;2022-07-21T01:31:09;97055.59;;;19.78;100.00
28927;BME280;16038;47.692;9.400;2022-07-21T01:33:34;97050.91;;;19.71;100.00
28927;BME280;16038;47.692;9.400;2022-07-21T01:36:00;97050.81;;;19.78;100.00
28927;BME280;16038;47.692;9.400;2022-07-21T01:38:25;97054.44;;;19.75;100.00
28927;BME280;16038;47.692;9.400;2022-07-21T01:41:09;97064.78;;;19.75;100.00
28927;BME280;16038;47.692;9.400;2022-07-21T01:43:53;97060.81;;;19.72;100.00
28927;BME280;16038;47.692;9.400;2022-07-21T01:46:18;97065.53;;;19.75;100.00
28927;BME280;16038;47.692;9.400;2022-07-21T01:48:44;97071.56;;;19.70;100.00
28927;BME280;16038;47.692;9.400;2022-07-21T01:51:10;97064.84;;;19.67;100.00
28927;BME280;16038;47.692;9.400;2022-07-21T01:53:36;97067.84;;;19.80;100.00
28927;BME280;16038;47.692;9.400;2022-07-21T01:56:02;97068.63;;;19.84;100.00
28927;BME280;16038;47.692;9.400;2022-07-21T01:58:29;97066.31;;;19.79;100.00
28927;BME280;16038;47.692;9.400;2022-07-21T02:00:54;97059.22;;;19.71;100.00
28927;BME280;16038;47.692;9.400;2022-07-21T02:03:20;97078.09;;;19.56;100.00
28927;BME280;16038;47.692;9.400;2022-07-21T02:05:45;97071.72;;;19.59;100.00
28927;BME280;16038;47.692;9.400;2022-07-21T02:08:10;97082.06;;;19.55;100.00
28927;BME280;16038;47.692;9.400;2022-07-21T02:10:36;97081.19;;;19.62;100.00
28927;BME280;16038;47.692;9.400;2022-07-21T02:13:02;97081.03;;;19.76;100.00
28927;BME280;16038;47.692;9.400;2022-07-21T02:15:30;97082.69;;;19.70;100.00
28927;BME280;16038;47.692;9.400;2022-07-21T02:17:56;97074.94;;;19.54;100.00
28927;BME280;16038;47.692;9.400;2022-07-21T02:20:22;97076.75;;;19.68;100.00
28927;BME280;16038;47.692;9.400;2022-07-21T02:22:48;97065.66;;;19.68;100.00
28927;BME280;16038;47.692;9.400;2022-07-21T02:25:14;97064.00;;;19.71;100.00
28927;BME280;16038;47.692;9.400;2022-07-21T02:27:41;97059.63;;;19.73;100.00
28927;BME280;16038;47.692;9.400;2022-07-21T02:30:07;97066.00;;;19.74;100.00
28927;BME280;16038;47.692;9.400;2022-07-21T02:32:32;97067.84;;;19.80;100.00
28927;BME280;16038;47.692;9.400;2022-07-21T02:34:58;97077.63;;;19.92;100.00
28927;BME280;16038;47.692;9.400;2022-07-21T02:37:23;97072.50;;;19.91;100.00
28927;BME280;16038;47.692;9.400;2022-07-21T02:39:49;97076.47;;;19.90;100.00
28927;BME280;16038;47.692;9.400;2022-07-21T02:42:14;97072.84;;;19.93;100.00
28927;BME280;16038;47.692;9.400;2022-07-21T02:44:40;97070.84;;;19.93;100.00
28927;BME280;16038;47.692;9.400;2022-07-21T02:47:05;97078.03;;;19.91;100.00
28927;BME280;16038;47.692;9.400;2022-07-21T02:49:31;97087.13;;;19.95;100.00
28927;BME280;16038;47.692;9.400;2022-07-21T02:51:57;97081.25;;;19.89;100.00
28927;BME280;16038;47.692;9.400;2022-07-21T02:54:22;97080.94;;;19.83;100.00
28927;BME280;16038;47.692;9.400;2022-07-21T02:56:47;97080.06;;;19.90;100.00
28927;BME280;16038;47.692;9.400;2022-07-21T02:59:13;97083.81;;;19.73;100.00
28927;BME280;16038;47.692;9.400;2022-07-21T03:01:38;97085.06;;;19.72;100.00
28927;BME280;16038;47.692;9.400;2022-07-21T03:04:04;97082.22;;;19.75;100.00
28927;BME280;16038;47.692;9.400;2022-07-21T03:06:29;97080.69;;;19.71;100.00
28927;BME280;16038;47.692;9.400;2022-07-21T03:08:55;97074.22;;;19.81;100.00
28927;BME280;16038;47.692;9.400;2022-07-21T03:11:20;97079.72;;;19.84;100.00
28927;BME280;16038;47.692;9.400;2022-07-21T03:13:45;97076.91;;;19.88;100.00
28927;BME280;16038;47.692;9.400;2022-07-21T03:16:11;97075.41;;;19.80;100.00
28927;BME280;16038;47.692;9.400;2022-07-21T03:18:36;97082.88;;;19.86;100.00
28927;BME280;16038;47.692;9.400;2022-07-21T03:21:02;97082.47;;;19.88;100.00
28927;BME280;16038;47.692;9.400;2022-07-21T03:23:27;97086.03;;;19.89;100.00
28927;BME280;16038;47.692;9.400;2022-07-21T03:25:53;97083.66;;;19.87;100.00
28927;BME280;16038;47.692;9.400;2022-07-21T03:28:18;97071.81;;;19.83;100.00
28927;BME280;16038;47.692;9.400;2022-07-21T03:30:44;97073.84;;;19.79;100.00
28927;BME280;16038;47.692;9.400;2022-07-21T03:33:09;97077.38;;;19.83;100.00
28927;BME280;16038;47.692;9.400;2022-07-21T03:35:35;97071.81;;;19.83;100.00
28927;BME280;16038;47.692;9.400;2022-07-21T03:38:04;97073.22;;;19.95;100.00
28927;BME280;16038;47.692;9.400;2022-07-21T03:40:32;97078.16;;;19.83;100.00
28927;BME280;16038;47.692;9.400;2022-07-21T03:43:00;97086.50;;;19.83;100.00
28927;BME280;16038;47.692;9.400;2022-07-21T03:45:26;97091.38;;;19.72;100.00
28927;BME280;16038;47.692;9.400;2022-07-21T03:47:55;97099.53;;;19.56;100.00
28927;BME280;16038;47.692;9.400;2022-07-21T03:50:21;97103.78;;;19.64;100.00
28927;BME280;16038;47.692;9.400;2022-07-21T03:52:46;97106.94;;;19.66;100.00
28927;BME280;16038;47.692;9.400;2022-07-21T03:55:13;97115.19;;;19.73;100.00
28927;BME280;16038;47.692;9.400;2022-07-21T03:57:45;97114.31;;;19.80;100.00
28927;BME280;16038;47.692;9.400;2022-07-21T04:00:23;97119.19;;;20.03;100.00
28927;BME280;16038;47.692;9.400;2022-07-21T04:02:49;97118.25;;;20.13;100.00
28927;BME280;16038;47.692;9.400;2022-07-21T04:05:17;97118.13;;;20.20;100.00
28927;BME280;16038;47.692;9.400;2022-07-21T04:07:45;97112.47;;;20.28;100.00
28927;BME280;16038;47.692;9.400;2022-07-21T04:10:12;97116.81;;;20.29;100.00
28927;BME280;16038;47.692;9.400;2022-07-21T04:12:39;97124.38;;;20.28;100.00
28927;BME280;16038;47.692;9.400;2022-07-21T04:15:07;97122.31;;;20.05;100.00
28927;BME280;16038;47.692;9.400;2022-07-21T04:17:33;97125.31;;;19.91;100.00
28927;BME280;16038;47.692;9.400;2022-07-21T04:19:58;97125.19;;;19.98;100.00
28927;BME280;16038;47.692;9.400;2022-07-21T04:22:24;97125.78;;;20.13;100.00
28927;BME280;16038;47.692;9.400;2022-07-21T04:24:49;97119.78;;;20.14;100.00
28927;BME280;16038;47.692;9.400;2022-07-21T04:27:15;97120.84;;;20.24;100.00
28927;BME280;16038;47.692;9.400;2022-07-21T04:29:40;97123.56;;;20.00;100.00
28927;BME280;16038;47.692;9.400;2022-07-21T04:32:06;97128.66;;;20.05;100.00
28927;BME280;16038;47.692;9.400;2022-07-21T04:34:31;97126.09;;;20.18;100.00
28927;BME280;16038;47.692;9.400;2022-07-21T04:36:57;97121.28;;;20.22;100.00
28927;BME280;16038;47.692;9.400;2022-07-21T04:39:22;97119.16;;;20.30;100.00
28927;BME280;16038;47.692;9.400;2022-07-21T04:41:48;97123.78;;;20.40;100.00
28927;BME280;16038;47.692;9.400;2022-07-21T04:44:13;97120.13;;;20.43;100.00
28927;BME280;16038;47.692;9.400;2022-07-21T04:46:39;97120.59;;;20.42;100.00
28927;BME280;16038;47.692;9.400;2022-07-21T04:49:04;97125.03;;;20.36;100.00
28927;BME280;16038;47.692;9.400;2022-07-21T04:51:30;97130.41;;;20.23;100.00
28927;BME280;16038;47.692;9.400;2022-07-21T04:53:55;97131.75;;;20.11;100.00
28927;BME280;16038;47.692;9.400;2022-07-21T04:56:20;97138.63;;;20.03;100.00
28927;BME280;16038;47.692;9.400;2022-07-21T04:58:46;97138.53;;;20.10;100.00
28927;BME280;16038;47.692;9.400;2022-07-21T05:01:11;97139.88;;;20.25;100.00
28927;BME280;16038;47.692;9.400;2022-07-21T05:03:36;97143.97;;;20.44;100.00
28927;BME280;16038;47.692;9.400;2022-07-21T05:06:02;97146.66;;;20.52;100.00
28927;BME280;16038;47.692;9.400;2022-07-21T05:08:27;97152.50;;;20.57;100.00
28927;BME280;16038;47.692;9.400;2022-07-21T05:10:53;97152.63;;;20.50;100.00
28927;BME280;16038;47.692;9.400;2022-07-21T05:13:18;97142.84;;;20.42;100.00
28927;BME280;16038;47.692;9.400;2022-07-21T05:15:44;97144.81;;;20.41;100.00
28927;BME280;16038;47.692;9.400;2022-07-21T05:18:09;97147.72;;;20.58;100.00
28927;BME280;16038;47.692;9.400;2022-07-21T05:20:35;97156.63;;;20.76;100.00
28927;BME280;16038;47.692;9.400;2022-07-21T05:23:00;97150.00;;;20.90;100.00
28927;BME280;16038;47.692;9.400;2022-07-21T05:25:27;97149.41;;;21.03;100.00
28927;BME280;16038;47.692;9.400;2022-07-21T05:27:53;97156.78;;;21.13;100.00
28927;BME280;16038;47.692;9.400;2022-07-21T05:30:19;97159.00;;;21.22;100.00
28927;BME280;16038;47.692;9.400;2022-07-21T05:32:44;97161.94;;;21.34;100.00
28927;BME280;16038;47.692;9.400;2022-07-21T05:35:10;97163.97;;;21.34;100.00
28927;BME280;16038;47.692;9.400;2022-07-21T05:37:40;97161.25;;;21.30;100.00
28927;BME280;16038;47.692;9.400;2022-07-21T05:40:09;97159.44;;;21.40;100.00
28927;BME280;16038;47.692;9.400;2022-07-21T05:42:35;97162.41;;;21.53;100.00
28927;BME280;16038;47.692;9.400;2022-07-21T05:45:04;97158.50;;;21.50;100.00
28927;BME280;16038;47.692;9.400;2022-07-21T05:47:29;97162.13;;;21.67;100.00
28927;BME280;16038;47.692;9.400;2022-07-21T05:49:57;97168.84;;;21.90;100.00
28927;BME280;16038;47.692;9.400;2022-07-21T05:52:22;97166.78;;;22.10;100.00
28927;BME280;16038;47.692;9.400;2022-07-21T05:54:48;97166.44;;;22.08;100.00
28927;BME280;16038;47.692;9.400;2022-07-21T05:57:13;97178.81;;;22.07;100.00
28927;BME280;16038;47.692;9.400;2022-07-21T05:59:39;97177.00;;;22.17;100.00
28927;BME280;16038;47.692;9.400;2022-07-21T06:02:04;97182.22;;;22.35;100.00
28927;BME280;16038;47.692;9.400;2022-07-21T06:04:30;97179.78;;;22.37;100.00
28927;BME280;16038;47.692;9.400;2022-07-21T06:06:55;97180.84;;;22.60;100.00
28927;BME280;16038;47.692;9.400;2022-07-21T06:09:21;97187.84;;;22.68;100.00
28927;BME280;16038;47.692;9.400;2022-07-21T06:11:46;97187.56;;;22.79;100.00
28927;BME280;16038;47.692;9.400;2022-07-21T06:14:12;97183.75;;;22.89;100.00
28927;BME280;16038;47.692;9.400;2022-07-21T06:16:37;97189.25;;;22.93;100.00
28927;BME280;16038;47.692;9.400;2022-07-21T06:19:04;97184.84;;;22.91;100.00
28927;BME280;16038;47.692;9.400;2022-07-21T06:21:31;97186.44;;;22.76;100.00
28927;BME280;16038;47.692;9.400;2022-07-21T06:23:57;97193.94;;;22.63;100.00
28927;BME280;16038;47.692;9.400;2022-07-21T06:26:22;97194.44;;;22.74;100.00
28927;BME280;16038;47.692;9.400;2022-07-21T06:28:48;97193.06;;;22.82;100.00
28927;BME280;16038;47.692;9.400;2022-07-21T06:31:13;97186.09;;;22.90;100.00
28927;BME280;16038;47.692;9.400;2022-07-21T06:33:38;97190.09;;;22.89;100.00
28927;BME280;16038;47.692;9.400;2022-07-21T06:36:06;97198.91;;;22.88;100.00
28927;BME280;16038;47.692;9.400;2022-07-21T06:38:32;97201.34;;;22.86;100.00
28927;BME280;16038;47.692;9.400;2022-07-21T06:40:57;97196.13;;;22.88;100.00
28927;BME280;16038;47.692;9.400;2022-07-21T06:43:22;97201.97;;;22.94;100.00
28927;BME280;16038;47.692;9.400;2022-07-21T06:45:48;97209.13;;;22.95;100.00
28927;BME280;16038;47.692;9.400;2022-07-21T06:48:13;97210.34;;;22.61;100.00
28927;BME280;16038;47.692;9.400;2022-07-21T06:50:39;97203.25;;;22.56;100.00
28927;BME280;16038;47.692;9.400;2022-07-21T06:53:05;97212.97;;;22.68;100.00
28927;BME280;16038;47.692;9.400;2022-07-21T06:55:31;97204.31;;;22.79;100.00
28927;BME280;16038;47.692;9.400;2022-07-21T06:57:56;97202.31;;;22.79;100.00
28927;BME280;16038;47.692;9.400;2022-07-21T07:00:22;97208.69;;;22.80;100.00
28927;BME280;16038;47.692;9.400;2022-07-21T07:02:48;97208.06;;;22.88;100.00
28927;BME280;16038;47.692;9.400;2022-07-21T07:05:13;97220.47;;;22.71;100.00
28927;BME280;16038;47.692;9.400;2022-07-21T07:07:39;97216.72;;;22.94;100.00
28927;BME280;16038;47.692;9.400;2022-07-21T07:10:05;97214.88;;;23.04;100.00
28927;BME280;16038;47.692;9.400;2022-07-21T07:12:31;97217.00;;;23.00;100.00
28927;BME280;16038;47.692;9.400;2022-07-21T07:14:56;97219.44;;;22.98;100.00
28927;BME280;16038;47.692;9.400;2022-07-21T07:17:22;97212.63;;;23.15;100.00
28927;BME280;16038;47.692;9.400;2022-07-21T07:19:48;97216.81;;;22.90;100.00
28927;BME280;16038;47.692;9.400;2022-07-21T07:22:13;97219.59;;;22.74;100.00
28927;BME280;16038;47.692;9.400;2022-07-21T07:24:39;97223.09;;;22.78;100.00
28927;BME280;16038;47.692;9.400;2022-07-21T07:27:05;97218.38;;;22.75;100.00
28927;BME280;16038;47.692;9.400;2022-07-21T07:29:31;97226.59;;;22.82;100.00
28927;BME280;16038;47.692;9.400;2022-07-21T07:31:57;97224.94;;;23.01;100.00
28927;BME280;16038;47.692;9.400;2022-07-21T07:34:23;97231.66;;;23.04;100.00
28927;BME280;16038;47.692;9.400;2022-07-21T07:36:48;97229.31;;;23.19;100.00
28927;BME280;16038;47.692;9.400;2022-07-21T07:39:14;97230.78;;;23.23;100.00
28927;BME280;16038;47.692;9.400;2022-07-21T07:41:41;97229.75;;;23.63;100.00
28927;BME280;16038;47.692;9.400;2022-07-21T07:44:06;97230.56;;;24.05;100.00
28927;BME280;16038;47.692;9.400;2022-07-21T07:46:32;97234.22;;;24.32;100.00
28927;BME280;16038;47.692;9.400;2022-07-21T07:48:57;97229.16;;;24.27;100.00
28927;BME280;16038;47.692;9.400;2022-07-21T07:51:24;97228.63;;;24.45;100.00
28927;BME280;16038;47.692;9.400;2022-07-21T07:53:49;97224.16;;;24.47;100.00
28927;BME280;16038;47.692;9.400;2022-07-21T07:56:15;97221.50;;;24.82;100.00
28927;BME280;16038;47.692;9.400;2022-07-21T07:58:40;97226.88;;;24.64;99.83
28927;BME280;16038;47.692;9.400;2022-07-21T08:01:06;97225.53;;;24.81;99.40
28927;BME280;16038;47.692;9.400;2022-07-21T08:03:31;97220.94;;;24.61;100.00
28927;BME280;16038;47.692;9.400;2022-07-21T08:05:57;97223.78;;;24.19;100.00
28927;BME280;16038;47.692;9.400;2022-07-21T08:08:29;97217.50;;;24.02;100.00
28927;BME280;16038;47.692;9.400;2022-07-21T08:10:56;97228.81;;;24.12;100.00
28927;BME280;16038;47.692;9.400;2022-07-21T08:13:21;97223.91;;;24.41;100.00
28927;BME280;16038;47.692;9.400;2022-07-21T08:15:48;97230.53;;;24.48;100.00
28927;BME280;16038;47.692;9.400;2022-07-21T08:18:14;97228.56;;;24.61;100.00
28927;BME280;16038;47.692;9.400;2022-07-21T08:20:40;97229.66;;;24.89;100.00
28927;BME280;16038;47.692;9.400;2022-07-21T08:23:06;97231.34;;;24.99;97.52
28927;BME280;16038;47.692;9.400;2022-07-21T08:25:32;97232.63;;;25.68;94.37
28927;BME280;16038;47.692;9.400;2022-07-21T08:27:57;97226.25;;;25.33;94.78
28927;BME280;16038;47.692;9.400;2022-07-21T08:30:23;97231.31;;;25.95;93.06
28927;BME280;16038;47.692;9.400;2022-07-21T08:32:48;97231.41;;;26.36;90.08
28927;BME280;16038;47.692;9.400;2022-07-21T08:35:14;97237.75;;;26.89;87.69
28927;BME280;16038;47.692;9.400;2022-07-21T08:37:40;97233.91;;;27.15;82.66
28927;BME280;16038;47.692;9.400;2022-07-21T08:40:08;97234.66;;;27.06;81.29
28927;BME280;16038;47.692;9.400;2022-07-21T08:42:34;97240.25;;;26.87;80.51
28927;BME280;16038;47.692;9.400;2022-07-21T08:45:00;97239.31;;;26.91;77.47
28927;BME280;16038;47.692;9.400;2022-07-21T08:47:26;97237.97;;;26.64;78.04
28927;BME280;16038;47.692;9.400;2022-07-21T08:49:53;97240.19;;;26.47;78.82
28927;BME280;16038;47.692;9.400;2022-07-21T08:52:18;97241.16;;;26.00;81.99
28927;BME280;16038;47.692;9.400;2022-07-21T08:54:44;97236.75;;;25.76;81.06
28927;BME280;16038;47.692;9.400;2022-07-21T08:57:10;97238.78;;;25.76;77.88
28927;BME280;16038;47.692;9.400;2022-07-21T08:59:35;97242.91;;;25.84;76.84
28927;BME280;16038;47.692;9.400;2022-07-21T09:02:01;97249.91;;;26.24;72.74
28927;BME280;16038;47.692;9.400;2022-07-21T09:04:33;97241.69;;;26.61;71.81
28927;BME280;16038;47.692;9.400;2022-07-21T09:07:06;97248.94;;;26.49;71.61
28927;BME280;16038;47.692;9.400;2022-07-21T09:09:34;97242.59;;;26.04;74.42
28927;BME280;16038;47.692;9.400;2022-07-21T09:12:01;97246.06;;;26.08;75.38
28927;BME280;16038;47.692;9.400;2022-07-21T09:14:30;97240.41;;;26.30;74.51
28927;BME280;16038;47.692;9.400;2022-07-21T09:16:58;97242.16;;;26.37;75.63
28927;BME280;16038;47.692;9.400;2022-07-21T09:19:29;97239.50;;;26.33;73.83
28927;BME280;16038;47.692;9.400;2022-07-21T09:21:58;97240.19;;;26.47;73.40
28927;BME280;16038;47.692;9.400;2022-07-21T09:24:32;97235.91;;;25.67;74.83
28927;BME280;16038;47.692;9.400;2022-07-21T09:32:13;97233.88;;;27.05;70.83
28927;BME280;16038;47.692;9.400;2022-07-21T09:34:39;97231.53;;;27.04;67.03
28927;BME280;16038;47.692;9.400;2022-07-21T09:37:06;97232.22;;;27.17;67.15
28927;BME280;16038;47.692;9.400;2022-07-21T09:39:46;97234.31;;;26.85;67.93
28927;BME280;16038;47.692;9.400;2022-07-21T09:44:46;97233.00;;;28.38;63.21
28927;BME280;16038;47.692;9.400;2022-07-21T09:47:16;97235.31;;;28.49;61.75
28927;BME280;16038;47.692;9.400;2022-07-21T09:49:42;97228.53;;;28.65;59.80
28927;BME280;16038;47.692;9.400;2022-07-21T09:52:18;97223.88;;;28.52;59.76
28927;BME280;16038;47.692;9.400;2022-07-21T09:54:44;97229.94;;;29.03;59.01
28927;BME280;16038;47.692;9.400;2022-07-21T09:57:09;97227.22;;;29.42;56.85
28927;BME280;16038;47.692;9.400;2022-07-21T09:59:35;97230.31;;;28.86;57.10
28927;BME280;16038;47.692;9.400;2022-07-21T10:02:01;97231.47;;;28.28;58.26
28927;BME280;16038;47.692;9.400;2022-07-21T10:04:28;97219.78;;;27.92;59.53
28927;BME280;16038;47.692;9.400;2022-07-21T10:06:55;97217.75;;;27.56;60.68
28927;BME280;16038;47.692;9.400;2022-07-21T10:09:22;97221.47;;;27.62;58.70
28927;BME280;16038;47.692;9.400;2022-07-21T10:11:47;97222.50;;;27.09;59.67
28927;BME280;16038;47.692;9.400;2022-07-21T10:14:13;97223.44;;;26.34;60.39
28927;BME280;16038;47.692;9.400;2022-07-21T10:16:39;97221.97;;;26.20;61.47
28927;BME280;16038;47.692;9.400;2022-07-21T10:24:15;97212.44;;;26.80;62.25
28927;BME280;16038;47.692;9.400;2022-07-21T10:32:18;97214.16;;;27.74;59.84
28927;BME280;16038;47.692;9.400;2022-07-21T10:34:44;97215.56;;;27.88;59.29
28927;BME280;16038;47.692;9.400;2022-07-21T10:37:11;97211.00;;;27.81;61.12
28927;BME280;16038;47.692;9.400;2022-07-21T10:39:56;97217.59;;;27.69;58.96
28927;BME280;16038;47.692;9.400;2022-07-21T10:42:21;97215.09;;;27.52;60.75
28927;BME280;16038;47.692;9.400;2022-07-21T10:44:47;97209.31;;;27.56;59.01
28927;BME280;16038;47.692;9.400;2022-07-21T10:49:47;97210.38;;;27.49;59.01
28927;BME280;16038;47.692;9.400;2022-07-21T10:55:16;97210.88;;;27.66;59.91
28927;BME280;16038;47.692;9.400;2022-07-21T10:57:44;97209.63;;;28.04;57.95
28927;BME280;16038;47.692;9.400;2022-07-21T11:00:28;97202.53;;;28.27;51.73
28927;BME280;16038;47.692;9.400;2022-07-21T11:02:59;97205.25;;;27.94;51.29
28927;BME280;16038;47.692;9.400;2022-07-21T11:05:26;97200.03;;;28.20;52.31
28927;BME280;16038;47.692;9.400;2022-07-21T11:08:12;97206.34;;;27.41;49.93
28927;BME280;16038;47.692;9.400;2022-07-21T11:10:50;97208.59;;;27.15;52.01
28927;BME280;16038;47.692;9.400;2022-07-21T11:13:17;97200.84;;;27.74;51.10
28927;BME280;16038;47.692;9.400;2022-07-21T11:15:51;97190.19;;;28.15;49.79
28927;BME280;16038;47.692;9.400;2022-07-21T11:18:23;97194.66;;;28.40;55.50
28927;BME280;16038;47.692;9.400;2022-07-21T11:21:13;97177.56;;;28.87;50.12
28927;BME280;16038;47.692;9.400;2022-07-21T11:23:47;97183.38;;;29.07;48.27
28927;BME280;16038;47.692;9.400;2022-07-21T11:26:15;97177.50;;;28.96;47.28
28927;BME280;16038;47.692;9.400;2022-07-21T11:28:42;97180.16;;;29.24;45.36
28927;BME280;16038;47.692;9.400;2022-07-21T11:31:13;97183.81;;;28.91;48.17
28927;BME280;16038;47.692;9.400;2022-07-21T11:33:42;97172.50;;;28.24;49.92
28927;BME280;16038;47.692;9.400;2022-07-21T11:36:22;97166.19;;;28.38;50.79
28927;BME280;16038;47.692;9.400;2022-07-21T11:39:10;97173.78;;;28.90;47.78
28927;BME280;16038;47.692;9.400;2022-07-21T11:41:37;97168.41;;;28.34;51.74
28927;BME280;16038;47.692;9.400;2022-07-21T11:44:05;97160.16;;;29.12;51.54
28927;BME280;16038;47.692;9.400;2022-07-21T11:46:53;97166.28;;;29.11;51.51
28927;BME280;16038;47.692;9.400;2022-07-21T11:49:19;97157.59;;;29.00;49.30
28927;BME280;16038;47.692;9.400;2022-07-21T11:55:05;97158.91;;;29.13;46.65
28927;BME280;16038;47.692;9.400;2022-07-21T11:57:07;97161.56;;;29.41;46.58
28927;BME280;16038;47.692;9.400;2022-07-21T11:59:33;97160.13;;;29.61;45.79
28927;BME280;16038;47.692;9.400;2022-07-21T12:04:46;97149.13;;;29.48;45.94
28927;BME280;16038;47.692;9.400;2022-07-21T12:09:54;97147.69;;;28.80;49.68
28927;BME280;16038;47.692;9.400;2022-07-21T12:12:43;97148.34;;;28.41;51.10
28927;BME280;16038;47.692;9.400;2022-07-21T12:15:22;97152.69;;;27.91;54.01
28927;BME280;16038;47.692;9.400;2022-07-21T12:17:53;97136.63;;;27.45;54.71
28927;BME280;16038;47.692;9.400;2022-07-21T12:20:31;97143.19;;;27.33;53.56
28927;BME280;16038;47.692;9.400;2022-07-21T12:22:58;97140.31;;;26.86;55.96
28927;BME280;16038;47.692;9.400;2022-07-21T12:25:36;97135.88;;;27.44;52.10
28927;BME280;16038;47.692;9.400;2022-07-21T12:28:03;97129.25;;;27.84;54.02
28927;BME280;16038;47.692;9.400;2022-07-21T12:33:10;97136.75;;;27.97;51.89
28927;BME280;16038;47.692;9.400;2022-07-21T12:35:39;97136.25;;;27.89;49.36
28927;BME280;16038;47.692;9.400;2022-07-21T12:38:13;97128.56;;;28.08;50.59
28927;BME280;16038;47.692;9.400;2022-07-21T12:40:47;97131.56;;;28.05;50.18
28927;BME280;16038;47.692;9.400;2022-07-21T12:43:21;97122.16;;;27.89;52.19
28927;BME280;16038;47.692;9.400;2022-07-21T12:45:48;97125.41;;;28.15;50.58
28927;BME280;16038;47.692;9.400;2022-07-21T12:48:16;97117.41;;;28.23;50.10
28927;BME280;16038;47.692;9.400;2022-07-21T12:50:42;97119.16;;;28.54;48.92
28927;BME280;16038;47.692;9.400;2022-07-21T12:53:08;97117.22;;;28.27;50.23
28927;BME280;16038;47.692;9.400;2022-07-21T12:55:34;97108.00;;;28.26;50.47
28927;BME280;16038;47.692;9.400;2022-07-21T12:58:00;97112.78;;;28.01;50.92
28927;BME280;16038;47.692;9.400;2022-07-21T13:00:26;97105.78;;;27.97;51.49
28927;BME280;16038;47.692;9.400;2022-07-21T13:02:53;97112.19;;;27.88;51.07
28927;BME280;16038;47.692;9.400;2022-07-21T13:05:20;97113.59;;;27.93;52.61
28927;BME280;16038;47.692;9.400;2022-07-21T13:07:45;97108.72;;;28.02;52.47
28927;BME280;16038;47.692;9.400;2022-07-21T13:10:11;97108.25;;;27.85;52.13
28927;BME280;16038;47.692;9.400;2022-07-21T13:12:37;97106.88;;;27.90;52.86
28927;BME280;16038;47.692;9.400;2022-07-21T13:15:04;97107.47;;;28.03;51.95
28927;BME280;16038;47.692;9.400;2022-07-21T13:17:30;97097.81;;;27.86;51.61
28927;BME280;16038;47.692;9.400;2022-07-21T13:19:55;97101.88;;;27.76;51.77
28927;BME280;16038;47.692;9.400;2022-07-21T13:22:21;97096.63;;;27.59;52.10
28927;BME280;16038;47.692;9.400;2022-07-21T13:24:47;97098.97;;;27.52;51.33
28927;BME280;16038;47.692;9.400;2022-07-21T13:27:12;97102.44;;;27.37;52.05
28927;BME280;16038;47.692;9.400;2022-07-21T13:29:38;97098.19;;;27.33;52.23